sensor_id;sensor_type;location;lat;lon;timestamp;P1;durP1;ratioP1;P2;durP2;ratioP2
14688;SDS011;7432;48.728;9.154;2023-08-06T00:02:19;7.93;;;7.23;;
14688;SDS011;7432;48.728;9.154;2023-08-06T00:04:45;7.80;;;7.10;;
14688;SDS011;7432;48.728;9.154;2023-08-06T00:07:12;7.83;;;7.20;;
14688;SDS011;7432;48.728;9.154;2023-08-06T00:09:39;7.93;;;7.23;;
14688;SDS011;7432;48.728;9.154;2023-08-06T00:12:06;8.00;;;7.20;;
14688;SDS011;7432;48.728;9.154;2023-08-06T00:14:33;7.73;;;7.13;;
14688;SDS011;7432;48.728;9.154;2023-08-06T00:16:59;8.00;;;7.30;;
14688;SDS011;7432;48.728;9.154;2023-08-06T00:19:26;7.87;;;7.17;;
14688;SDS011;7432;48.728;9.154;2023-08-06T00:21:52;7.93;;;7.27;;
14688;SDS011;7432;48.728;9.154;2023-08-06T00:24:18;8.40;;;7.67;;
14688;SDS011;7432;48.728;9.154;2023-08-06T00:26:46;7.70;;;7.10;;
14688;SDS011;7432;48.728;9.154;2023-08-06T00:29:12;7.53;;;6.93;;
14688;SDS011;7432;48.728;9.154;2023-08-06T00:31:39;7.77;;;7.13;;
14688;SDS011;7432;48.728;9.154;2023-08-06T00:34:05;8.53;;;7.60;;
14688;SDS011;7432;48.728;9.154;2023-08-06T00:36:31;7.70;;;6.87;;
14688;SDS011;7432;48.728;9.154;2023-08-06T00:38:58;7.43;;;6.67;;
14688;SDS011;7432;48.728;9.154;2023-08-06T00:41:24;6.30;;;5.70;;
14688;SDS011;7432;48.728;9.154;2023-08-06T00:43:52;6.30;;;5.80;;
14688;SDS011;7432;48.728;9.154;2023-08-06T00:46:18;6.20;;;5.53;;
14688;SDS011;7432;48.728;9.154;2023-08-06T00:48:45;6.07;;;5.57;;
14688;SDS011;7432;48.728;9.154;2023-08-06T00:51:12;6.13;;;5.50;;
14688;SDS011;7432;48.728;9.154;2023-08-06T00:53:39;5.30;;;4.90;;
14688;SDS011;7432;48.728;9.154;2023-08-06T00:56:06;5.33;;;4.87;;
14688;SDS011;7432;48.728;9.154;2023-08-06T00:58:33;5.10;;;4.67;;
14688;SDS011;7432;48.728;9.154;2023-08-06T01:01:02;6.43;;;5.10;;
14688;SDS011;7432;48.728;9.154;2023-08-06T01:03:28;4.93;;;4.53;;
14688;SDS011;7432;48.728;9.154;2023-08-06T01:05:55;4.97;;;4.37;;
14688;SDS011;7432;48.728;9.154;2023-08-06T01:08:25;5.70;;;4.63;;
14688;SDS011;7432;48.728;9.154;2023-08-06T01:11:00;4.77;;;4.47;;
14688;SDS011;7432;48.728;9.154;2023-08-06T01:13:38;5.10;;;4.60;;
14688;SDS011;7432;48.728;9.154;2023-08-06T01:16:10;4.73;;;4.40;;
14688;SDS011;7432;48.728;9.154;2023-08-06T01:18:37;5.20;;;4.80;;
14688;SDS011;7432;48.728;9.154;2023-08-06T01:21:06;5.23;;;4.73;;
14688;SDS011;7432;48.728;9.154;2023-08-06T01:23:32;5.30;;;4.47;;
14688;SDS011;7432;48.728;9.154;2023-08-06T01:26:02;5.00;;;4.60;;
14688;SDS011;7432;48.728;9.154;2023-08-06T01:28:36;4.60;;;4.30;;
14688;SDS011;7432;48.728;9.154;2023-08-06T01:31:10;4.93;;;4.40;;
14688;SDS011;7432;48.728;9.154;2023-08-06T01:33:43;4.80;;;4.47;;
14688;SDS011;7432;48.728;9.154;2023-08-06T01:36:13;4.57;;;4.27;;
14688;SDS011;7432;48.728;9.154;2023-08-06T01:38:41;5.43;;;4.67;;
14688;SDS011;7432;48.728;9.154;2023-08-06T01:41:08;5.03;;;4.53;;
14688;SDS011;7432;48.728;9.154;2023-08-06T01:43:34;5.63;;;4.70;;
14688;SDS011;7432;48.728;9.154;2023-08-06T01:46:00;5.60;;;5.07;;
14688;SDS011;7432;48.728;9.154;2023-08-06T01:48:27;4.57;;;4.27;;
14688;SDS011;7432;48.728;9.154;2023-08-06T01:50:53;4.77;;;4.47;;
14688;SDS011;7432;48.728;9.154;2023-08-06T01:53:21;5.50;;;4.97;;
14688;SDS011;7432;48.728;9.154;2023-08-06T01:55:47;4.73;;;4.33;;
14688;SDS011;7432;48.728;9.154;2023-08-06T01:58:14;5.87;;;4.70;;
14688;SDS011;7432;48.728;9.154;2023-08-06T02:00:40;4.80;;;4.40;;
14688;SDS011;7432;48.728;9.154;2023-08-06T02:03:07;5.33;;;4.93;;
14688;SDS011;7432;48.728;9.154;2023-08-06T02:05:33;4.93;;;4.53;;
14688;SDS011;7432;48.728;9.154;2023-08-06T02:08:00;5.10;;;4.77;;
14688;SDS011;7432;48.728;9.154;2023-08-06T02:10:28;4.93;;;4.53;;
14688;SDS011;7432;48.728;9.154;2023-08-06T02:12:54;4.90;;;4.50;;
14688;SDS011;7432;48.728;9.154;2023-08-06T02:15:20;4.63;;;4.33;;
14688;SDS011;7432;48.728;9.154;2023-08-06T02:17:47;5.27;;;4.77;;
14688;SDS011;7432;48.728;9.154;2023-08-06T02:20:13;4.60;;;4.30;;
14688;SDS011;7432;48.728;9.154;2023-08-06T02:22:39;5.67;;;4.90;;
14688;SDS011;7432;48.728;9.154;2023-08-06T02:25:06;5.70;;;4.80;;
14688;SDS011;7432;48.728;9.154;2023-08-06T02:27:34;5.00;;;4.60;;
14688;SDS011;7432;48.728;9.154;2023-08-06T02:30:01;4.80;;;4.40;;
14688;SDS011;7432;48.728;9.154;2023-08-06T02:32:28;6.27;;;4.47;;
14688;SDS011;7432;48.728;9.154;2023-08-06T02:34:56;4.67;;;4.33;;
14688;SDS011;7432;48.728;9.154;2023-08-06T02:37:23;4.90;;;4.40;;
14688;SDS011;7432;48.728;9.154;2023-08-06T02:39:49;4.60;;;4.30;;
14688;SDS011;7432;48.728;9.154;2023-08-06T02:42:15;5.00;;;4.60;;
14688;SDS011;7432;48.728;9.154;2023-08-06T02:44:43;4.87;;;4.47;;
14688;SDS011;7432;48.728;9.154;2023-08-06T02:47:09;5.23;;;4.73;;
14688;SDS011;7432;48.728;9.154;2023-08-06T02:49:36;4.60;;;4.30;;
14688;SDS011;7432;48.728;9.154;2023-08-06T02:52:02;5.00;;;4.60;;
14688;SDS011;7432;48.728;9.154;2023-08-06T02:54:29;5.40;;;3.83;;
14688;SDS011;7432;48.728;9.154;2023-08-06T02:56:56;4.37;;;4.07;;
14688;SDS011;7432;48.728;9.154;2023-08-06T02:59:22;4.60;;;4.23;;
14688;SDS011;7432;48.728;9.154;2023-08-06T03:01:50;4.87;;;4.37;;
14688;SDS011;7432;48.728;9.154;2023-08-06T03:04:16;4.00;;;3.80;;
14688;SDS011;7432;48.728;9.154;2023-08-06T03:06:43;4.70;;;4.20;;
14688;SDS011;7432;48.728;9.154;2023-08-06T03:09:10;5.07;;;4.23;;
14688;SDS011;7432;48.728;9.154;2023-08-06T03:11:36;5.00;;;3.63;;
14688;SDS011;7432;48.728;9.154;2023-08-06T03:14:02;4.50;;;4.10;;
14688;SDS011;7432;48.728;9.154;2023-08-06T03:16:29;5.20;;;4.70;;
14688;SDS011;7432;48.728;9.154;2023-08-06T03:18:56;4.50;;;4.10;;
14688;SDS011;7432;48.728;9.154;2023-08-06T03:21:23;6.03;;;4.37;;
14688;SDS011;7432;48.728;9.154;2023-08-06T03:23:49;4.47;;;3.97;;
14688;SDS011;7432;48.728;9.154;2023-08-06T03:26:16;4.03;;;3.70;;
14688;SDS011;7432;48.728;9.154;2023-08-06T03:28:42;4.37;;;3.97;;
14688;SDS011;7432;48.728;9.154;2023-08-06T03:31:08;4.60;;;4.10;;
14688;SDS011;7432;48.728;9.154;2023-08-06T03:33:35;4.27;;;3.87;;
14688;SDS011;7432;48.728;9.154;2023-08-06T03:36:03;4.30;;;4.00;;
14688;SDS011;7432;48.728;9.154;2023-08-06T03:38:29;4.50;;;4.10;;
14688;SDS011;7432;48.728;9.154;2023-08-06T03:40:56;4.30;;;4.00;;
14688;SDS011;7432;48.728;9.154;2023-08-06T03:43:22;5.60;;;4.10;;
14688;SDS011;7432;48.728;9.154;2023-08-06T03:45:49;4.60;;;4.30;;
14688;SDS011;7432;48.728;9.154;2023-08-06T03:48:15;4.10;;;3.80;;
14688;SDS011;7432;48.728;9.154;2023-08-06T03:50:41;6.03;;;4.00;;
14688;SDS011;7432;48.728;9.154;2023-08-06T03:53:09;7.37;;;4.30;;
14688;SDS011;7432;48.728;9.154;2023-08-06T03:55:36;4.37;;;4.07;;
14688;SDS011;7432;48.728;9.154;2023-08-06T03:58:02;4.67;;;4.33;;
14688;SDS011;7432;48.728;9.154;2023-08-06T04:00:28;4.60;;;4.20;;
14688;SDS011;7432;48.728;9.154;2023-08-06T04:02:55;4.90;;;4.50;;
14688;SDS011;7432;48.728;9.154;2023-08-06T04:05:21;5.07;;;4.67;;
14688;SDS011;7432;48.728;9.154;2023-08-06T04:07:47;4.67;;;4.27;;
14688;SDS011;7432;48.728;9.154;2023-08-06T04:10:15;4.60;;;4.10;;
14688;SDS011;7432;48.728;9.154;2023-08-06T04:12:41;4.00;;;3.70;;
14688;SDS011;7432;48.728;9.154;2023-08-06T04:15:08;4.73;;;4.33;;
14688;SDS011;7432;48.728;9.154;2023-08-06T04:17:34;3.80;;;3.40;;
14688;SDS011;7432;48.728;9.154;2023-08-06T04:20:01;5.57;;;3.67;;
14688;SDS011;7432;48.728;9.154;2023-08-06T04:22:27;4.23;;;3.80;;
14688;SDS011;7432;48.728;9.154;2023-08-06T04:24:53;4.20;;;3.90;;
14688;SDS011;7432;48.728;9.154;2023-08-06T04:27:21;4.03;;;3.80;;
14688;SDS011;7432;48.728;9.154;2023-08-06T04:29:48;3.77;;;3.53;;
14688;SDS011;7432;48.728;9.154;2023-08-06T04:32:14;5.83;;;3.60;;
14688;SDS011;7432;48.728;9.154;2023-08-06T04:34:40;4.40;;;4.00;;
14688;SDS011;7432;48.728;9.154;2023-08-06T04:37:08;4.03;;;3.73;;
14688;SDS011;7432;48.728;9.154;2023-08-06T04:39:34;3.87;;;3.47;;
14688;SDS011;7432;48.728;9.154;2023-08-06T04:42:01;4.20;;;3.87;;
14688;SDS011;7432;48.728;9.154;2023-08-06T04:44:28;3.97;;;3.50;;
14688;SDS011;7432;48.728;9.154;2023-08-06T04:46:55;6.30;;;3.80;;
14688;SDS011;7432;48.728;9.154;2023-08-06T04:49:21;3.60;;;3.30;;
14688;SDS011;7432;48.728;9.154;2023-08-06T04:51:48;3.80;;;3.50;;
14688;SDS011;7432;48.728;9.154;2023-08-06T04:54:14;3.70;;;3.40;;
14688;SDS011;7432;48.728;9.154;2023-08-06T04:56:40;3.53;;;3.30;;
14688;SDS011;7432;48.728;9.154;2023-08-06T04:59:07;3.87;;;3.50;;
14688;SDS011;7432;48.728;9.154;2023-08-06T05:01:34;3.60;;;3.30;;
14688;SDS011;7432;48.728;9.154;2023-08-06T05:04:01;5.00;;;3.60;;
14688;SDS011;7432;48.728;9.154;2023-08-06T05:06:27;5.60;;;3.63;;
14688;SDS011;7432;48.728;9.154;2023-08-06T05:08:54;3.53;;;3.30;;
14688;SDS011;7432;48.728;9.154;2023-08-06T05:11:20;3.73;;;3.43;;
14688;SDS011;7432;48.728;9.154;2023-08-06T05:13:46;3.50;;;3.20;;
14688;SDS011;7432;48.728;9.154;2023-08-06T05:16:13;3.00;;;2.80;;
14688;SDS011;7432;48.728;9.154;2023-08-06T05:18:40;3.83;;;3.47;;
14688;SDS011;7432;48.728;9.154;2023-08-06T05:21:07;3.30;;;3.10;;
14688;SDS011;7432;48.728;9.154;2023-08-06T05:23:33;4.63;;;3.67;;
14688;SDS011;7432;48.728;9.154;2023-08-06T05:26:00;4.27;;;3.17;;
14688;SDS011;7432;48.728;9.154;2023-08-06T05:28:26;3.23;;;3.03;;
14688;SDS011;7432;48.728;9.154;2023-08-06T05:30:52;3.90;;;3.10;;
14688;SDS011;7432;48.728;9.154;2023-08-06T05:33:19;4.37;;;2.90;;
14688;SDS011;7432;48.728;9.154;2023-08-06T05:35:46;3.57;;;2.93;;
14688;SDS011;7432;48.728;9.154;2023-08-06T05:38:13;3.20;;;3.00;;
14688;SDS011;7432;48.728;9.154;2023-08-06T05:40:39;3.30;;;3.00;;
14688;SDS011;7432;48.728;9.154;2023-08-06T05:43:05;2.83;;;2.60;;
14688;SDS011;7432;48.728;9.154;2023-08-06T05:45:32;3.30;;;2.87;;
14688;SDS011;7432;48.728;9.154;2023-08-06T05:47:58;3.87;;;3.57;;
14688;SDS011;7432;48.728;9.154;2023-08-06T05:50:24;3.40;;;3.10;;
14688;SDS011;7432;48.728;9.154;2023-08-06T05:52:52;3.50;;;3.20;;
14688;SDS011;7432;48.728;9.154;2023-08-06T05:55:19;3.37;;;3.10;;
14688;SDS011;7432;48.728;9.154;2023-08-06T05:57:46;3.20;;;3.00;;
14688;SDS011;7432;48.728;9.154;2023-08-06T06:00:12;3.43;;;3.17;;
14688;SDS011;7432;48.728;9.154;2023-08-06T06:02:39;3.50;;;3.20;;
14688;SDS011;7432;48.728;9.154;2023-08-06T06:05:05;3.67;;;3.30;;
14688;SDS011;7432;48.728;9.154;2023-08-06T06:07:32;4.33;;;3.00;;
14688;SDS011;7432;48.728;9.154;2023-08-06T06:10:00;6.90;;;3.40;;
14688;SDS011;7432;48.728;9.154;2023-08-06T06:12:26;3.40;;;3.17;;
14688;SDS011;7432;48.728;9.154;2023-08-06T06:14:53;3.33;;;3.13;;
14688;SDS011;7432;48.728;9.154;2023-08-06T06:17:19;4.17;;;2.90;;
14688;SDS011;7432;48.728;9.154;2023-08-06T06:19:45;2.90;;;2.70;;
14688;SDS011;7432;48.728;9.154;2023-08-06T06:22:13;3.07;;;2.77;;
14688;SDS011;7432;48.728;9.154;2023-08-06T06:24:40;3.30;;;3.10;;
14688;SDS011;7432;48.728;9.154;2023-08-06T06:27:07;3.50;;;3.20;;
14688;SDS011;7432;48.728;9.154;2023-08-06T06:29:34;4.07;;;3.40;;
14688;SDS011;7432;48.728;9.154;2023-08-06T06:32:00;3.13;;;2.93;;
14688;SDS011;7432;48.728;9.154;2023-08-06T06:34:26;3.20;;;2.97;;
14688;SDS011;7432;48.728;9.154;2023-08-06T06:36:53;3.93;;;3.23;;
14688;SDS011;7432;48.728;9.154;2023-08-06T06:39:20;3.73;;;3.40;;
14688;SDS011;7432;48.728;9.154;2023-08-06T06:41:47;3.33;;;3.07;;
14688;SDS011;7432;48.728;9.154;2023-08-06T06:44:15;4.00;;;3.40;;
14688;SDS011;7432;48.728;9.154;2023-08-06T06:46:41;4.23;;;3.10;;
14688;SDS011;7432;48.728;9.154;2023-08-06T06:49:07;3.60;;;3.30;;
14688;SDS011;7432;48.728;9.154;2023-08-06T06:51:34;3.50;;;3.30;;
14688;SDS011;7432;48.728;9.154;2023-08-06T06:54:00;3.20;;;3.00;;
14688;SDS011;7432;48.728;9.154;2023-08-06T06:56:27;2.93;;;2.77;;
14688;SDS011;7432;48.728;9.154;2023-08-06T06:58:53;4.13;;;3.00;;
14688;SDS011;7432;48.728;9.154;2023-08-06T07:01:21;3.23;;;2.93;;
14688;SDS011;7432;48.728;9.154;2023-08-06T07:03:47;3.40;;;3.10;;
14688;SDS011;7432;48.728;9.154;2023-08-06T07:06:14;2.87;;;2.67;;
14688;SDS011;7432;48.728;9.154;2023-08-06T07:08:40;3.00;;;2.80;;
14688;SDS011;7432;48.728;9.154;2023-08-06T07:11:07;3.40;;;3.10;;
14688;SDS011;7432;48.728;9.154;2023-08-06T07:13:34;3.27;;;2.93;;
14688;SDS011;7432;48.728;9.154;2023-08-06T07:16:01;2.90;;;2.70;;
14688;SDS011;7432;48.728;9.154;2023-08-06T07:18:29;3.23;;;2.93;;
14688;SDS011;7432;48.728;9.154;2023-08-06T07:20:55;3.33;;;3.03;;
14688;SDS011;7432;48.728;9.154;2023-08-06T07:23:22;3.17;;;3.00;;
14688;SDS011;7432;48.728;9.154;2023-08-06T07:25:49;3.30;;;3.00;;
14688;SDS011;7432;48.728;9.154;2023-08-06T07:28:16;3.20;;;3.00;;
14688;SDS011;7432;48.728;9.154;2023-08-06T07:30:43;3.20;;;3.00;;
14688;SDS011;7432;48.728;9.154;2023-08-06T07:33:10;3.40;;;3.10;;
14688;SDS011;7432;48.728;9.154;2023-08-06T07:35:38;3.27;;;3.07;;
14688;SDS011;7432;48.728;9.154;2023-08-06T07:38:04;3.27;;;3.03;;
14688;SDS011;7432;48.728;9.154;2023-08-06T07:40:31;3.30;;;3.10;;
14688;SDS011;7432;48.728;9.154;2023-08-06T07:42:57;3.20;;;3.00;;
14688;SDS011;7432;48.728;9.154;2023-08-06T07:45:24;3.20;;;3.00;;
14688;SDS011;7432;48.728;9.154;2023-08-06T07:47:51;3.23;;;3.03;;
14688;SDS011;7432;48.728;9.154;2023-08-06T07:50:18;2.93;;;2.80;;
14688;SDS011;7432;48.728;9.154;2023-08-06T07:52:46;3.30;;;3.10;;
14688;SDS011;7432;48.728;9.154;2023-08-06T07:55:12;3.70;;;3.40;;
14688;SDS011;7432;48.728;9.154;2023-08-06T07:57:38;3.60;;;3.40;;
14688;SDS011;7432;48.728;9.154;2023-08-06T08:00:05;3.50;;;3.40;;
14688;SDS011;7432;48.728;9.154;2023-08-06T08:02:32;3.13;;;3.03;;
14688;SDS011;7432;48.728;9.154;2023-08-06T08:04:58;3.10;;;2.90;;
14688;SDS011;7432;48.728;9.154;2023-08-06T08:07:25;3.07;;;2.87;;
14688;SDS011;7432;48.728;9.154;2023-08-06T08:09:54;3.10;;;3.00;;
14688;SDS011;7432;48.728;9.154;2023-08-06T08:12:21;3.53;;;3.33;;
14688;SDS011;7432;48.728;9.154;2023-08-06T08:14:47;3.20;;;3.00;;
14688;SDS011;7432;48.728;9.154;2023-08-06T08:17:13;3.00;;;2.90;;
14688;SDS011;7432;48.728;9.154;2023-08-06T08:19:40;3.40;;;3.20;;
14688;SDS011;7432;48.728;9.154;2023-08-06T08:22:06;3.40;;;3.20;;
14688;SDS011;7432;48.728;9.154;2023-08-06T08:24:33;3.30;;;3.20;;
14688;SDS011;7432;48.728;9.154;2023-08-06T08:27:00;3.10;;;3.00;;
14688;SDS011;7432;48.728;9.154;2023-08-06T08:29:27;3.00;;;2.90;;
14688;SDS011;7432;48.728;9.154;2023-08-06T08:31:53;3.10;;;3.00;;
14688;SDS011;7432;48.728;9.154;2023-08-06T08:34:19;3.00;;;2.90;;
14688;SDS011;7432;48.728;9.154;2023-08-06T08:36:46;2.93;;;2.83;;
14688;SDS011;7432;48.728;9.154;2023-08-06T08:39:12;3.40;;;3.30;;
14688;SDS011;7432;48.728;9.154;2023-08-06T08:41:39;3.60;;;3.30;;
14688;SDS011;7432;48.728;9.154;2023-08-06T08:44:08;3.40;;;3.30;;
14688;SDS011;7432;48.728;9.154;2023-08-06T08:46:36;3.20;;;3.10;;
14688;SDS011;7432;48.728;9.154;2023-08-06T08:49:03;3.10;;;3.00;;
14688;SDS011;7432;48.728;9.154;2023-08-06T08:51:30;3.20;;;3.10;;
14688;SDS011;7432;48.728;9.154;2023-08-06T08:53:58;3.40;;;3.30;;
14688;SDS011;7432;48.728;9.154;2023-08-06T08:56:25;3.40;;;3.30;;
14688;SDS011;7432;48.728;9.154;2023-08-06T08:58:51;3.60;;;3.40;;
14688;SDS011;7432;48.728;9.154;2023-08-06T09:01:21;3.13;;;3.03;;
14688;SDS011;7432;48.728;9.154;2023-08-06T09:03:49;3.70;;;3.50;;
14688;SDS011;7432;48.728;9.154;2023-08-06T09:06:16;3.60;;;3.50;;
14688;SDS011;7432;48.728;9.154;2023-08-06T09:08:47;3.33;;;3.23;;
14688;SDS011;7432;48.728;9.154;2023-08-06T09:11:17;3.80;;;3.50;;
14688;SDS011;7432;48.728;9.154;2023-08-06T09:13:46;3.73;;;3.60;;
14688;SDS011;7432;48.728;9.154;2023-08-06T09:16:13;3.77;;;3.67;;
14688;SDS011;7432;48.728;9.154;2023-08-06T09:18:41;3.60;;;3.50;;
14688;SDS011;7432;48.728;9.154;2023-08-06T09:21:11;3.60;;;3.50;;
14688;SDS011;7432;48.728;9.154;2023-08-06T09:23:40;3.87;;;3.67;;
14688;SDS011;7432;48.728;9.154;2023-08-06T09:26:07;3.67;;;3.57;;
14688;SDS011;7432;48.728;9.154;2023-08-06T09:28:37;4.13;;;3.93;;
14688;SDS011;7432;48.728;9.154;2023-08-06T09:31:04;3.63;;;3.40;;
14688;SDS011;7432;48.728;9.154;2023-08-06T09:33:31;3.73;;;3.60;;
14688;SDS011;7432;48.728;9.154;2023-08-06T09:35:58;3.60;;;3.50;;
14688;SDS011;7432;48.728;9.154;2023-08-06T09:38:37;3.90;;;3.70;;
14688;SDS011;7432;48.728;9.154;2023-08-06T09:41:03;3.80;;;3.70;;
14688;SDS011;7432;48.728;9.154;2023-08-06T09:43:30;4.00;;;3.80;;
14688;SDS011;7432;48.728;9.154;2023-08-06T09:45:56;3.80;;;3.60;;
14688;SDS011;7432;48.728;9.154;2023-08-06T09:48:23;3.50;;;3.40;;
14688;SDS011;7432;48.728;9.154;2023-08-06T09:50:50;3.90;;;3.70;;
14688;SDS011;7432;48.728;9.154;2023-08-06T09:53:19;3.50;;;3.40;;
14688;SDS011;7432;48.728;9.154;2023-08-06T09:55:45;3.63;;;3.50;;
14688;SDS011;7432;48.728;9.154;2023-08-06T09:58:12;3.43;;;3.23;;
14688;SDS011;7432;48.728;9.154;2023-08-06T10:00:39;3.60;;;3.50;;
14688;SDS011;7432;48.728;9.154;2023-08-06T10:03:06;3.10;;;3.00;;
14688;SDS011;7432;48.728;9.154;2023-08-06T10:05:32;3.77;;;3.57;;
14688;SDS011;7432;48.728;9.154;2023-08-06T10:08:00;3.20;;;3.10;;
14688;SDS011;7432;48.728;9.154;2023-08-06T10:10:30;4.13;;;3.80;;
14688;SDS011;7432;48.728;9.154;2023-08-06T10:12:58;3.57;;;3.47;;
14688;SDS011;7432;48.728;9.154;2023-08-06T10:15:27;3.27;;;3.17;;
14688;SDS011;7432;48.728;9.154;2023-08-06T10:17:56;3.70;;;3.50;;
14688;SDS011;7432;48.728;9.154;2023-08-06T10:20:23;3.40;;;3.30;;
14688;SDS011;7432;48.728;9.154;2023-08-06T10:22:59;3.10;;;3.00;;
14688;SDS011;7432;48.728;9.154;2023-08-06T10:25:28;3.10;;;3.00;;
14688;SDS011;7432;48.728;9.154;2023-08-06T10:27:59;3.10;;;3.00;;
14688;SDS011;7432;48.728;9.154;2023-08-06T10:30:26;3.20;;;3.00;;
14688;SDS011;7432;48.728;9.154;2023-08-06T10:32:56;3.23;;;3.10;;
14688;SDS011;7432;48.728;9.154;2023-08-06T10:35:31;3.40;;;3.30;;
14688;SDS011;7432;48.728;9.154;2023-08-06T10:38:04;3.30;;;3.10;;
14688;SDS011;7432;48.728;9.154;2023-08-06T10:40:33;3.40;;;3.20;;
14688;SDS011;7432;48.728;9.154;2023-08-06T10:42:59;3.20;;;3.00;;
14688;SDS011;7432;48.728;9.154;2023-08-06T10:45:26;2.97;;;2.87;;
14688;SDS011;7432;48.728;9.154;2023-08-06T10:47:55;3.10;;;3.00;;
14688;SDS011;7432;48.728;9.154;2023-08-06T10:50:22;3.20;;;3.00;;
14688;SDS011;7432;48.728;9.154;2023-08-06T10:52:49;3.13;;;2.93;;
14688;SDS011;7432;48.728;9.154;2023-08-06T10:55:23;3.30;;;3.20;;
14688;SDS011;7432;48.728;9.154;2023-08-06T10:57:52;4.30;;;4.00;;
14688;SDS011;7432;48.728;9.154;2023-08-06T11:00:20;3.60;;;3.40;;
14688;SDS011;7432;48.728;9.154;2023-08-06T11:02:48;3.33;;;3.10;;
14688;SDS011;7432;48.728;9.154;2023-08-06T11:05:15;3.77;;;3.47;;
14688;SDS011;7432;48.728;9.154;2023-08-06T11:07:42;3.33;;;3.23;;
14688;SDS011;7432;48.728;9.154;2023-08-06T11:10:09;3.30;;;3.20;;
14688;SDS011;7432;48.728;9.154;2023-08-06T11:12:36;3.40;;;3.30;;
14688;SDS011;7432;48.728;9.154;2023-08-06T11:15:05;3.50;;;3.30;;
14688;SDS011;7432;48.728;9.154;2023-08-06T11:17:33;3.93;;;3.73;;
14688;SDS011;7432;48.728;9.154;2023-08-06T11:20:00;3.67;;;3.47;;
14688;SDS011;7432;48.728;9.154;2023-08-06T11:22:27;3.60;;;3.30;;
14688;SDS011;7432;48.728;9.154;2023-08-06T11:24:54;3.23;;;3.13;;
14688;SDS011;7432;48.728;9.154;2023-08-06T11:27:21;3.40;;;3.20;;
14688;SDS011;7432;48.728;9.154;2023-08-06T11:29:47;3.30;;;3.10;;
14688;SDS011;7432;48.728;9.154;2023-08-06T11:32:15;3.67;;;3.40;;
14688;SDS011;7432;48.728;9.154;2023-08-06T11:34:41;3.13;;;3.03;;
14688;SDS011;7432;48.728;9.154;2023-08-06T11:37:09;4.00;;;3.80;;
14688;SDS011;7432;48.728;9.154;2023-08-06T11:39:36;3.90;;;3.70;;
14688;SDS011;7432;48.728;9.154;2023-08-06T11:42:03;3.87;;;3.67;;
14688;SDS011;7432;48.728;9.154;2023-08-06T11:44:31;4.00;;;3.80;;
14688;SDS011;7432;48.728;9.154;2023-08-06T11:46:58;3.63;;;3.43;;
14688;SDS011;7432;48.728;9.154;2023-08-06T11:49:40;3.90;;;3.70;;
14688;SDS011;7432;48.728;9.154;2023-08-06T11:52:16;4.00;;;3.80;;
14688;SDS011;7432;48.728;9.154;2023-08-06T11:54:45;3.93;;;3.63;;
14688;SDS011;7432;48.728;9.154;2023-08-06T11:57:13;3.90;;;3.70;;
14688;SDS011;7432;48.728;9.154;2023-08-06T11:59:41;4.30;;;3.90;;
14688;SDS011;7432;48.728;9.154;2023-08-06T12:02:08;4.30;;;4.00;;
14688;SDS011;7432;48.728;9.154;2023-08-06T12:04:58;3.90;;;3.70;;
14688;SDS011;7432;48.728;9.154;2023-08-06T12:07:30;3.83;;;3.63;;
14688;SDS011;7432;48.728;9.154;2023-08-06T12:09:56;3.90;;;3.70;;
14688;SDS011;7432;48.728;9.154;2023-08-06T12:12:23;4.07;;;3.87;;
14688;SDS011;7432;48.728;9.154;2023-08-06T12:14:49;4.40;;;4.10;;
14688;SDS011;7432;48.728;9.154;2023-08-06T12:17:16;3.70;;;3.50;;
14688;SDS011;7432;48.728;9.154;2023-08-06T12:19:44;4.20;;;4.00;;
14688;SDS011;7432;48.728;9.154;2023-08-06T12:22:11;3.80;;;3.60;;
14688;SDS011;7432;48.728;9.154;2023-08-06T12:24:39;4.00;;;3.80;;
14688;SDS011;7432;48.728;9.154;2023-08-06T12:27:05;4.37;;;4.17;;
14688;SDS011;7432;48.728;9.154;2023-08-06T12:29:32;4.10;;;3.90;;
14688;SDS011;7432;48.728;9.154;2023-08-06T12:31:58;4.13;;;3.93;;
14688;SDS011;7432;48.728;9.154;2023-08-06T12:34:24;3.87;;;3.67;;
14688;SDS011;7432;48.728;9.154;2023-08-06T12:36:51;3.53;;;3.43;;
14688;SDS011;7432;48.728;9.154;2023-08-06T12:39:19;4.30;;;4.00;;
14688;SDS011;7432;48.728;9.154;2023-08-06T12:41:45;3.80;;;3.60;;
14688;SDS011;7432;48.728;9.154;2023-08-06T12:44:11;4.37;;;4.10;;
14688;SDS011;7432;48.728;9.154;2023-08-06T12:46:38;4.27;;;3.90;;
14688;SDS011;7432;48.728;9.154;2023-08-06T12:49:04;4.27;;;4.07;;
14688;SDS011;7432;48.728;9.154;2023-08-06T12:51:31;4.00;;;3.80;;
14688;SDS011;7432;48.728;9.154;2023-08-06T12:53:58;3.90;;;3.70;;
14688;SDS011;7432;48.728;9.154;2023-08-06T12:56:26;4.30;;;4.07;;
14688;SDS011;7432;48.728;9.154;2023-08-06T12:58:54;3.97;;;3.77;;
14688;SDS011;7432;48.728;9.154;2023-08-06T13:01:20;3.90;;;3.70;;
14688;SDS011;7432;48.728;9.154;2023-08-06T13:03:46;4.53;;;4.23;;
14688;SDS011;7432;48.728;9.154;2023-08-06T13:06:13;4.53;;;4.23;;
14688;SDS011;7432;48.728;9.154;2023-08-06T13:08:39;4.60;;;4.30;;
14688;SDS011;7432;48.728;9.154;2023-08-06T13:11:06;4.63;;;4.40;;
14688;SDS011;7432;48.728;9.154;2023-08-06T13:13:33;4.60;;;4.40;;
14688;SDS011;7432;48.728;9.154;2023-08-06T13:16:00;4.47;;;4.27;;
14688;SDS011;7432;48.728;9.154;2023-08-06T13:18:27;4.60;;;4.30;;
14688;SDS011;7432;48.728;9.154;2023-08-06T13:20:54;4.53;;;4.27;;
14688;SDS011;7432;48.728;9.154;2023-08-06T13:23:21;4.27;;;4.07;;
14688;SDS011;7432;48.728;9.154;2023-08-06T13:25:47;4.43;;;4.13;;
14688;SDS011;7432;48.728;9.154;2023-08-06T13:28:13;4.60;;;4.37;;
14688;SDS011;7432;48.728;9.154;2023-08-06T13:30:41;4.70;;;4.50;;
14688;SDS011;7432;48.728;9.154;2023-08-06T13:33:08;5.27;;;4.77;;
14688;SDS011;7432;48.728;9.154;2023-08-06T13:35:34;4.57;;;4.27;;
14688;SDS011;7432;48.728;9.154;2023-08-06T13:38:00;4.30;;;4.10;;
14688;SDS011;7432;48.728;9.154;2023-08-06T13:40:27;4.40;;;4.00;;
14688;SDS011;7432;48.728;9.154;2023-08-06T13:42:54;4.23;;;4.03;;
14688;SDS011;7432;48.728;9.154;2023-08-06T13:45:21;4.20;;;4.00;;
14688;SDS011;7432;48.728;9.154;2023-08-06T13:47:49;4.33;;;4.13;;
14688;SDS011;7432;48.728;9.154;2023-08-06T13:50:15;4.60;;;4.40;;
14688;SDS011;7432;48.728;9.154;2023-08-06T13:52:42;4.40;;;4.20;;
14688;SDS011;7432;48.728;9.154;2023-08-06T13:55:08;4.30;;;4.10;;
14688;SDS011;7432;48.728;9.154;2023-08-06T13:57:35;4.57;;;4.37;;
14688;SDS011;7432;48.728;9.154;2023-08-06T14:00:01;4.80;;;4.60;;
14688;SDS011;7432;48.728;9.154;2023-08-06T14:02:28;4.30;;;4.10;;
14688;SDS011;7432;48.728;9.154;2023-08-06T14:04:55;4.70;;;4.40;;
14688;SDS011;7432;48.728;9.154;2023-08-06T14:07:22;4.30;;;4.10;;
14688;SDS011;7432;48.728;9.154;2023-08-06T14:09:48;4.83;;;4.50;;
14688;SDS011;7432;48.728;9.154;2023-08-06T14:12:15;4.97;;;4.70;;
14688;SDS011;7432;48.728;9.154;2023-08-06T14:14:41;4.50;;;4.20;;
14688;SDS011;7432;48.728;9.154;2023-08-06T14:17:08;6.17;;;4.53;;
14688;SDS011;7432;48.728;9.154;2023-08-06T14:19:34;4.47;;;4.17;;
14688;SDS011;7432;48.728;9.154;2023-08-06T14:22:02;4.90;;;4.60;;
14688;SDS011;7432;48.728;9.154;2023-08-06T14:24:28;4.40;;;4.20;;
14688;SDS011;7432;48.728;9.154;2023-08-06T14:26:54;4.70;;;4.50;;
14688;SDS011;7432;48.728;9.154;2023-08-06T14:29:21;4.30;;;4.10;;
14688;SDS011;7432;48.728;9.154;2023-08-06T14:31:47;4.90;;;4.60;;
14688;SDS011;7432;48.728;9.154;2023-08-06T14:34:14;4.90;;;4.60;;
14688;SDS011;7432;48.728;9.154;2023-08-06T14:36:40;4.73;;;4.33;;
14688;SDS011;7432;48.728;9.154;2023-08-06T14:39:08;4.70;;;4.43;;
14688;SDS011;7432;48.728;9.154;2023-08-06T14:41:34;4.37;;;4.17;;
14688;SDS011;7432;48.728;9.154;2023-08-06T14:44:00;4.50;;;4.30;;
14688;SDS011;7432;48.728;9.154;2023-08-06T14:46:27;4.33;;;4.13;;
14688;SDS011;7432;48.728;9.154;2023-08-06T14:48:53;4.50;;;4.20;;
14688;SDS011;7432;48.728;9.154;2023-08-06T14:51:19;4.17;;;3.97;;
14688;SDS011;7432;48.728;9.154;2023-08-06T14:53:46;4.67;;;4.40;;
14688;SDS011;7432;48.728;9.154;2023-08-06T14:56:14;4.33;;;4.13;;
14688;SDS011;7432;48.728;9.154;2023-08-06T14:58:40;4.90;;;4.60;;
14688;SDS011;7432;48.728;9.154;2023-08-06T15:01:07;4.20;;;3.90;;